Terminal Aerodrome Forecast
Issued by NWS Caribou, ME

Home | Current Version | Previous Version | Text Only | Print | Product List | Glossary On
Versions: 1 2 3 4 5 6 7 8 9 10 11 12 13 14 15 16 17 18 19 20 21 22 23 24
000
FTUS41 KCAR 280537
TAFCAR
TAF
KCAR 280537Z 2806/2906 17005KT 1/2SM FG OVC002
     FM280800 24005KT 2SM BR BKN007
     FM281100 31007KT P6SM SCT010 BKN050
     FM281600 33010G20KT P6SM BKN060
     FM290000 02004KT P6SM BKN250=

USA.gov is the U.S. government's official web portal to all federal, state and local government web resources and services.